createdAt,value
2018-07-13T00:00:36.601Z,25.89
2018-07-13T00:05:23.162Z,25.72
2018-07-13T00:10:06.759Z,25.68
2018-07-13T00:15:01.308Z,25.80
2018-07-13T00:19:44.874Z,25.59
2018-07-13T00:24:28.537Z,25.62
2018-07-13T00:29:12.267Z,25.69
2018-07-13T00:34:01.388Z,25.69
2018-07-13T00:38:44.922Z,25.73
2018-07-13T00:43:29.545Z,25.64
2018-07-13T00:48:13.128Z,25.58
2018-07-13T00:52:56.463Z,25.55
2018-07-13T00:57:43.316Z,25.48
2018-07-13T01:02:26.909Z,25.65
2018-07-13T01:07:14.192Z,25.64
2018-07-13T01:11:57.775Z,25.48
2018-07-13T01:16:41.488Z,25.54
2018-07-13T01:21:25.153Z,25.50
2018-07-13T01:26:12.190Z,25.48
2018-07-13T01:30:55.738Z,25.50
2018-07-13T01:35:42.668Z,25.33
2018-07-13T01:40:26.113Z,25.08
2018-07-13T01:45:10.847Z,25.51
2018-07-13T01:49:54.449Z,25.49
2018-07-13T01:54:38.148Z,25.55
2018-07-13T01:59:21.500Z,25.46
2018-07-13T02:04:05.206Z,25.45
2018-07-13T02:08:48.764Z,25.36
2018-07-13T02:13:35.725Z,25.28
2018-07-13T02:18:19.172Z,25.07
2018-07-13T02:23:02.739Z,24.91
2018-07-13T02:27:49.782Z,24.94
2018-07-13T02:32:33.399Z,24.94
2018-07-13T02:37:20.012Z,25.04
2018-07-13T02:42:03.572Z,25.21
2018-07-13T02:46:48.199Z,25.19
2018-07-13T02:51:31.502Z,25.08
2018-07-13T02:56:16.055Z,25.09
2018-07-13T03:00:59.452Z,24.84
2018-07-13T03:05:46.142Z,24.81
2018-07-13T03:10:29.631Z,24.93
2018-07-13T03:15:14.190Z,25.03
2018-07-13T03:19:57.811Z,24.75
2018-07-13T03:24:42.248Z,24.89
2018-07-13T03:29:25.924Z,24.89
2018-07-13T03:34:12.654Z,24.94
2018-07-13T03:38:56.193Z,24.91
2018-07-13T03:43:44.028Z,24.77
2018-07-13T03:48:27.513Z,24.88
2018-07-13T03:53:12.066Z,24.93
2018-07-13T03:57:55.798Z,24.91
2018-07-13T04:02:39.394Z,24.73
2018-07-13T04:07:26.519Z,24.75
2018-07-13T04:12:10.158Z,24.71
2018-07-13T04:16:59.651Z,24.68
2018-07-13T04:21:43.278Z,24.73
2018-07-13T04:26:27.990Z,24.74
2018-07-13T04:31:11.667Z,24.82
2018-07-13T04:35:58.901Z,24.83
2018-07-13T04:40:42.599Z,24.86
2018-07-13T04:45:29.762Z,24.89
2018-07-13T04:50:13.360Z,24.95
2018-07-13T04:55:00.407Z,24.97
2018-07-13T04:59:45.952Z,24.99
2018-07-13T05:04:30.912Z,25.02
2018-07-13T05:09:14.906Z,25.04
2018-07-13T05:13:58.478Z,25.04
2018-07-13T05:18:42.058Z,25.04
2018-07-13T05:23:28.716Z,25.06
2018-07-13T05:28:12.162Z,25.11
2018-07-13T05:32:55.913Z,25.18
2018-07-13T05:37:39.374Z,25.25
2018-07-13T05:42:23.004Z,25.36
2018-07-13T05:47:10.202Z,25.36
2018-07-13T05:51:53.714Z,25.43
2018-07-13T05:56:42.516Z,25.57
2018-07-13T06:01:25.957Z,25.51
2018-07-13T06:06:09.704Z,25.54
2018-07-13T06:10:53.238Z,25.64
2018-07-13T06:15:39.973Z,25.66
2018-07-13T06:20:23.473Z,25.69
2018-07-13T06:25:11.517Z,25.67
2018-07-13T06:29:55.065Z,25.80
2018-07-13T06:34:38.757Z,26.08
2018-07-13T06:39:22.258Z,26.20
2018-07-13T06:44:05.853Z,26.15
2018-07-13T06:48:49.607Z,26.12
2018-07-13T06:53:36.302Z,26.18
2018-07-13T06:58:30.683Z,26.22
2018-07-13T07:03:15.421Z,26.24
2018-07-13T07:07:58.984Z,26.27
2018-07-13T07:13:02.956Z,26.36
2018-07-13T07:17:46.517Z,26.35
2018-07-13T07:22:30.237Z,26.43
2018-07-13T07:27:13.994Z,26.40
2018-07-13T07:31:57.672Z,26.53
2018-07-13T07:36:41.357Z,26.82
2018-07-13T07:41:25.215Z,26.75
2018-07-13T07:46:08.811Z,26.81
2018-07-13T07:50:52.446Z,26.64
2018-07-13T07:55:36.072Z,26.91
2018-07-13T08:00:19.653Z,27.32
2018-07-13T08:05:03.530Z,27.38
2018-07-13T08:09:47.008Z,27.39
2018-07-13T08:14:34.732Z,27.23
2018-07-13T08:19:18.266Z,27.58
2018-07-13T08:24:03.416Z,27.51
2018-07-13T08:28:48.337Z,27.38
2018-07-13T08:33:32.043Z,27.54
2018-07-13T08:38:15.619Z,27.68
2018-07-13T08:43:00.065Z,27.46
2018-07-13T08:47:43.663Z,27.95
2018-07-13T08:52:27.360Z,27.87
2018-07-13T08:57:10.758Z,27.43
2018-07-13T09:01:54.349Z,27.87
2018-07-13T09:06:39.057Z,27.62
2018-07-13T09:11:35.449Z,27.63
2018-07-13T09:16:20.244Z,27.92
2018-07-13T09:21:04.442Z,28.14
2018-07-13T09:25:51.798Z,28.71
2018-07-13T09:30:35.262Z,28.74
2018-07-13T09:35:19.736Z,28.20
2018-07-13T09:40:03.242Z,28.76
2018-07-13T09:44:48.555Z,28.43
2018-07-13T09:49:32.264Z,28.90
2018-07-13T09:54:16.722Z,28.73
2018-07-13T09:59:00.185Z,28.47
2018-07-13T10:03:44.737Z,28.69
2018-07-13T10:09:58.259Z,28.56
2018-07-13T10:14:42.853Z,28.17
2018-07-13T10:19:26.264Z,28.20
2018-07-13T10:24:09.803Z,28.01
2018-07-13T10:28:53.381Z,28.14
2018-07-13T10:33:40.020Z,27.98
2018-07-13T10:38:23.634Z,28.14
2018-07-13T10:43:07.382Z,28.39
2018-07-13T10:47:51.229Z,28.09
2018-07-13T10:52:34.972Z,28.66
2018-07-13T10:57:18.553Z,28.68
2018-07-13T11:02:02.473Z,28.36
2018-07-13T11:06:46.069Z,28.50
2018-07-13T11:11:29.721Z,28.70
2018-07-13T11:16:14.450Z,28.92
2018-07-13T11:20:58.042Z,28.91
2018-07-13T11:25:42.827Z,28.77
2018-07-13T11:30:26.098Z,28.98
2018-07-13T11:35:12.749Z,28.80
2018-07-13T11:39:56.345Z,28.84
2018-07-13T11:44:40.015Z,28.69
2018-07-13T11:49:23.653Z,28.65
2018-07-13T11:54:10.928Z,28.70
2018-07-13T11:58:54.594Z,28.53
2018-07-13T12:03:41.712Z,28.28
2018-07-13T12:08:25.311Z,28.16
2018-07-13T12:13:12.892Z,28.06
2018-07-13T12:17:56.501Z,28.03
2018-07-13T12:22:43.230Z,28.10
2018-07-13T12:27:26.795Z,28.01
2018-07-13T12:32:11.342Z,28.03
2018-07-13T12:36:54.988Z,28.04
2018-07-13T12:41:38.545Z,28.09
2018-07-13T12:46:22.330Z,28.15
2018-07-13T12:51:05.919Z,28.26
2018-07-13T12:55:49.562Z,28.37
2018-07-13T13:00:33.025Z,28.09
2018-07-13T13:05:31.610Z,27.76
2018-07-13T13:10:15.294Z,27.80
2018-07-13T13:14:58.997Z,27.50
2018-07-13T13:19:42.583Z,27.48
2018-07-13T13:24:27.419Z,27.33
2018-07-13T13:29:11.115Z,27.28
2018-07-13T13:33:54.636Z,27.06
2018-07-13T13:38:38.166Z,27.04
2018-07-13T13:43:24.840Z,27.29
2018-07-13T13:48:08.510Z,27.17
2018-07-13T13:52:52.324Z,26.90
2018-07-13T13:57:35.918Z,26.85
2018-07-13T14:02:20.567Z,26.96
2018-07-13T14:07:03.949Z,27.06
2018-07-13T14:11:47.697Z,27.08
2018-07-13T14:16:31.332Z,26.99
2018-07-13T14:21:15.011Z,27.05
2018-07-13T14:25:58.664Z,27.11
2018-07-13T14:30:42.259Z,27.16
2018-07-13T14:35:29.561Z,27.20
2018-07-13T14:40:13.152Z,27.21
2018-07-13T14:44:56.840Z,27.21
2018-07-13T14:49:46.443Z,27.27
2018-07-13T14:54:30.012Z,27.19
2018-07-13T14:59:13.609Z,27.25
2018-07-13T15:04:00.342Z,27.08
2018-07-13T15:08:43.833Z,27.29
2018-07-13T15:13:27.472Z,27.41
2018-07-13T15:18:11.110Z,27.43
2018-07-13T15:22:54.766Z,27.48
2018-07-13T15:27:38.373Z,27.09
2018-07-13T15:32:23.002Z,27.13
2018-07-13T15:37:06.562Z,27.11
2018-07-13T15:41:50.471Z,27.00
2018-07-13T15:46:34.036Z,27.29
2018-07-13T15:51:17.647Z,27.27
2018-07-13T15:56:01.268Z,27.22
2018-07-13T16:00:44.792Z,27.11
2018-07-13T16:05:28.752Z,27.06
2018-07-13T16:10:12.455Z,27.11
2018-07-13T16:14:56.226Z,27.04
2018-07-13T16:19:39.696Z,27.14
2018-07-13T16:24:23.545Z,26.85
2018-07-13T16:29:07.237Z,27.03
2018-07-13T16:33:54.406Z,27.14
2018-07-13T16:38:38.009Z,27.00
2018-07-13T16:43:25.055Z,26.77
2018-07-13T16:48:08.626Z,26.30
2018-07-13T16:52:53.373Z,26.54
2018-07-13T16:57:37.018Z,26.78
2018-07-13T17:02:20.930Z,25.70
2018-07-13T17:07:04.798Z,25.46
2018-07-13T17:11:48.300Z,25.04
2018-07-13T17:16:31.974Z,25.41
2018-07-13T17:21:16.636Z,25.38
2018-07-13T17:26:00.875Z,25.62
2018-07-13T17:30:44.418Z,25.31
2018-07-13T17:35:28.911Z,25.30
2018-07-13T17:40:12.547Z,25.61
2018-07-13T17:45:01.683Z,25.73
2018-07-13T17:49:45.118Z,25.87
2018-07-13T17:54:28.791Z,25.98
2018-07-13T17:59:12.465Z,25.95
2018-07-13T18:03:56.300Z,25.96
2018-07-13T18:08:39.853Z,25.90
2018-07-13T18:13:23.671Z,25.90
2018-07-13T18:18:07.980Z,25.72
2018-07-13T18:22:52.521Z,24.77
2018-07-13T18:27:36.140Z,24.98
2018-07-13T18:32:23.085Z,24.89
2018-07-13T18:37:06.635Z,25.19
2018-07-13T18:41:50.418Z,25.10
2018-07-13T18:46:34.102Z,25.00
2018-07-13T18:51:18.014Z,25.15
2018-07-13T18:56:01.569Z,25.40
2018-07-13T19:00:45.262Z,24.94
2018-07-13T19:05:28.995Z,25.20
2018-07-13T19:10:12.698Z,25.27
2018-07-13T19:14:57.054Z,25.27
2018-07-13T19:19:40.741Z,25.10
2018-07-13T19:24:24.395Z,24.80
2018-07-13T19:29:08.240Z,24.85
2018-07-13T19:33:55.650Z,25.17
2018-07-13T19:38:39.288Z,25.08
2018-07-13T19:43:24.536Z,25.00
2018-07-13T19:48:08.325Z,24.52
2018-07-13T19:52:52.048Z,24.52
2018-07-13T19:57:36.247Z,24.68
2018-07-13T20:02:19.901Z,24.87
2018-07-13T20:07:03.986Z,24.48
2018-07-13T20:11:47.666Z,24.33
2018-07-13T20:16:31.301Z,24.80
2018-07-13T20:21:15.974Z,24.50
2018-07-13T20:25:59.555Z,24.45
2018-07-13T20:30:46.803Z,24.38
2018-07-13T20:35:30.506Z,24.10
2018-07-13T20:40:14.203Z,24.24
2018-07-13T20:44:58.273Z,24.05
2018-07-13T20:49:41.889Z,24.51
2018-07-13T20:54:28.531Z,24.65
2018-07-13T20:59:12.234Z,24.59
2018-07-13T21:04:00.090Z,24.47
2018-07-13T21:08:43.649Z,24.48
2018-07-13T21:13:30.825Z,24.52
2018-07-13T21:18:14.504Z,24.40
2018-07-13T21:23:01.867Z,24.45
2018-07-13T21:27:45.397Z,24.25
2018-07-13T21:32:29.196Z,24.18
2018-07-13T21:37:12.562Z,23.78
2018-07-13T21:41:57.264Z,24.20
2018-07-13T21:46:40.836Z,24.15
2018-07-13T21:51:24.571Z,23.83
2018-07-13T21:56:08.000Z,24.21
2018-07-13T22:00:52.722Z,24.19
2018-07-13T22:05:36.416Z,24.18
2018-07-13T22:10:20.182Z,24.46
2018-07-13T22:15:03.827Z,24.41
2018-07-13T22:19:47.382Z,24.17
2018-07-13T22:24:31.158Z,24.37
2018-07-13T22:29:14.711Z,24.39
2018-07-13T22:33:59.332Z,24.17
2018-07-13T22:38:42.668Z,23.52
2018-07-13T22:43:26.240Z,23.29
2018-07-13T22:48:09.904Z,24.03
2018-07-13T22:52:53.589Z,24.04
2018-07-13T22:57:37.221Z,24.01
2018-07-13T23:02:24.653Z,23.48
2018-07-13T23:07:08.269Z,23.83
2018-07-13T23:11:52.472Z,23.82
2018-07-13T23:16:36.029Z,23.85
2018-07-13T23:21:20.826Z,23.83
2018-07-13T23:26:04.300Z,23.69
2018-07-13T23:30:52.228Z,23.45
2018-07-13T23:35:35.572Z,23.92
2018-07-13T23:40:22.667Z,23.73
2018-07-13T23:45:06.080Z,23.74
2018-07-13T23:49:49.589Z,23.65
2018-07-13T23:54:34.277Z,23.64
2018-07-13T23:59:17.641Z,23.69
